createdAt,value
2019-05-11T00:00:08.947Z,94
2019-05-11T00:01:09.083Z,94
2019-05-11T00:02:08.568Z,94
2019-05-11T00:03:08.754Z,94
2019-05-11T00:04:09.690Z,94
2019-05-11T00:05:08.628Z,94
2019-05-11T00:06:08.992Z,94
2019-05-11T00:07:08.709Z,94
2019-05-11T00:08:08.727Z,94
2019-05-11T00:09:09.166Z,94
2019-05-11T00:10:10.056Z,94
2019-05-11T00:11:08.911Z,94
2019-05-11T00:12:10.887Z,94
2019-05-11T00:13:08.603Z,94
2019-05-11T00:14:08.623Z,94
2019-05-11T00:15:09.113Z,94
2019-05-11T00:16:08.809Z,94
2019-05-11T00:17:08.647Z,94
2019-05-11T00:18:09.352Z,94
2019-05-11T00:19:08.853Z,94
2019-05-11T00:20:09.820Z,94
2019-05-11T00:21:08.646Z,94
2019-05-11T00:22:10.950Z,94
2019-05-11T00:23:09.259Z,94
2019-05-11T00:24:09.145Z,94
2019-05-11T00:25:08.796Z,94
2019-05-11T00:26:08.563Z,94
2019-05-11T00:27:09.035Z,94
2019-05-11T00:28:10.679Z,94
2019-05-11T00:29:09.223Z,95
2019-05-11T00:30:08.978Z,95
2019-05-11T00:31:08.558Z,95
2019-05-11T00:32:09.318Z,94
2019-05-11T00:33:09.274Z,94
2019-05-11T00:34:08.714Z,95
2019-05-11T00:35:09.979Z,95
2019-05-11T00:36:09.031Z,95
2019-05-11T00:37:08.861Z,95
2019-05-11T00:38:08.997Z,95
2019-05-11T00:39:08.707Z,95
2019-05-11T00:40:13.772Z,95
2019-05-11T00:41:19.031Z,95
2019-05-11T00:42:09.332Z,95
2019-05-11T00:43:08.671Z,95
2019-05-11T00:44:09.107Z,95
2019-05-11T00:45:11.809Z,95
2019-05-11T00:46:10.312Z,95
2019-05-11T00:47:09.071Z,95
2019-05-11T00:48:09.688Z,95
2019-05-11T00:49:08.703Z,95
2019-05-11T00:50:08.936Z,95
2019-05-11T00:51:09.579Z,95
2019-05-11T00:52:08.718Z,95
2019-05-11T00:53:09.060Z,95
2019-05-11T00:54:09.031Z,95
2019-05-11T00:55:08.620Z,95
2019-05-11T00:56:08.698Z,95
2019-05-11T00:57:08.931Z,95
2019-05-11T00:58:08.658Z,95
2019-05-11T00:59:20.705Z,95
2019-05-11T01:00:09.998Z,95
2019-05-11T01:01:37.187Z,95
2019-05-11T01:02:08.871Z,95
2019-05-11T01:03:10.374Z,95
2019-05-11T01:04:09.807Z,95
2019-05-11T01:05:09.544Z,95
2019-05-11T01:06:08.667Z,95
2019-05-11T01:07:09.769Z,95
2019-05-11T01:08:10.833Z,95
2019-05-11T01:09:09.494Z,95
2019-05-11T01:10:21.837Z,95
2019-05-11T01:11:08.884Z,95
2019-05-11T01:12:08.695Z,95
2019-05-11T01:13:08.641Z,95
2019-05-11T01:14:08.667Z,95
2019-05-11T01:15:08.776Z,95
2019-05-11T01:16:09.413Z,95
2019-05-11T01:17:08.690Z,95
2019-05-11T01:18:09.136Z,95
2019-05-11T01:19:09.801Z,95
2019-05-11T01:20:09.228Z,95
2019-05-11T01:21:09.864Z,95
2019-05-11T01:22:09.297Z,95
2019-05-11T01:23:08.997Z,95
2019-05-11T01:24:08.769Z,95
2019-05-11T01:25:09.422Z,95
2019-05-11T01:26:08.754Z,95
2019-05-11T01:27:08.829Z,95
2019-05-11T01:28:08.736Z,95
2019-05-11T01:29:08.761Z,95
2019-05-11T01:30:08.821Z,95
2019-05-11T01:31:08.861Z,95
2019-05-11T01:32:09.161Z,95
2019-05-11T01:33:09.161Z,95
2019-05-11T01:34:08.712Z,95
2019-05-11T01:35:08.843Z,95
2019-05-11T01:36:09.379Z,95
2019-05-11T01:37:09.046Z,95
2019-05-11T01:38:08.724Z,95
2019-05-11T01:39:09.047Z,95
2019-05-11T01:40:08.996Z,95
2019-05-11T01:41:09.047Z,95
2019-05-11T01:42:09.183Z,95
2019-05-11T01:43:08.634Z,95
2019-05-11T01:44:08.990Z,95
2019-05-11T01:45:09.299Z,95
2019-05-11T01:46:09.651Z,95
2019-05-11T01:47:08.800Z,95
2019-05-11T01:48:08.668Z,95
2019-05-11T01:49:08.617Z,95
2019-05-11T01:50:08.651Z,95
2019-05-11T01:51:08.901Z,95
2019-05-11T01:52:06.570Z,95
2019-05-11T01:53:08.625Z,95
2019-05-11T01:54:06.236Z,95
2019-05-11T01:55:08.580Z,95
2019-05-11T01:56:09.993Z,95
2019-05-11T01:57:09.604Z,95
2019-05-11T01:58:08.946Z,95
2019-05-11T01:59:06.611Z,95
2019-05-11T02:00:06.220Z,95
2019-05-11T02:01:06.430Z,95
2019-05-11T02:02:06.186Z,95
2019-05-11T02:03:09.031Z,95
2019-05-11T02:04:06.241Z,95
2019-05-11T02:05:06.667Z,95
2019-05-11T02:06:06.679Z,95
2019-05-11T02:07:06.252Z,95
2019-05-11T02:08:06.594Z,95
2019-05-11T02:09:06.561Z,95
2019-05-11T02:10:06.789Z,95
2019-05-11T02:11:15.462Z,95
2019-05-11T02:12:06.306Z,95
2019-05-11T02:13:06.454Z,95
2019-05-11T02:14:06.274Z,95
2019-05-11T02:15:06.179Z,95
2019-05-11T02:16:06.493Z,95
2019-05-11T02:17:06.179Z,95
2019-05-11T02:18:08.514Z,95
2019-05-11T02:19:06.475Z,95
2019-05-11T02:20:18.678Z,95
2019-05-11T02:21:06.777Z,96
2019-05-11T02:22:06.710Z,96
2019-05-11T02:23:06.766Z,96
2019-05-11T02:24:06.247Z,96
2019-05-11T02:25:06.435Z,96
2019-05-11T02:26:06.456Z,96
2019-05-11T02:27:06.653Z,96
2019-05-11T02:28:31.183Z,96
2019-05-11T02:29:06.244Z,96
2019-05-11T02:30:06.404Z,96
2019-05-11T02:31:07.114Z,95
2019-05-11T02:32:06.408Z,95
2019-05-11T02:33:06.790Z,95
2019-05-11T02:34:06.231Z,95
2019-05-11T02:35:06.286Z,95
2019-05-11T02:36:06.295Z,95
2019-05-11T02:37:06.284Z,95
2019-05-11T02:38:06.591Z,95
2019-05-11T02:40:19.195Z,95
2019-05-11T02:41:33.278Z,95
2019-05-11T02:42:19.423Z,95
2019-05-11T02:43:18.828Z,95
2019-05-11T02:44:19.025Z,95
2019-05-11T02:45:18.924Z,95
2019-05-11T02:46:19.649Z,95
2019-05-11T02:47:19.339Z,95
2019-05-11T02:48:19.467Z,95
2019-05-11T02:49:19.057Z,95
2019-05-11T02:55:14.337Z,95
2019-05-11T02:55:27.390Z,95
2019-05-11T02:56:28.667Z,95
2019-05-11T02:57:28.676Z,95
2019-05-11T02:58:28.659Z,95
2019-05-11T02:59:29.845Z,95
2019-05-11T03:00:29.119Z,95
2019-05-11T03:01:28.565Z,95
2019-05-11T03:02:28.580Z,95
2019-05-11T03:03:29.042Z,95
2019-05-11T03:04:28.950Z,95
2019-05-11T03:05:29.404Z,95
2019-05-11T03:06:28.669Z,95
2019-05-11T03:07:29.006Z,95
2019-05-11T03:08:28.997Z,95
2019-05-11T03:09:28.562Z,95
2019-05-11T03:10:28.989Z,95
2019-05-11T03:11:28.794Z,95
2019-05-11T03:12:28.595Z,95
2019-05-11T03:13:28.845Z,95
2019-05-11T03:14:29.272Z,95
2019-05-11T03:15:28.797Z,95
2019-05-11T03:16:29.183Z,95
2019-05-11T03:17:28.513Z,95
2019-05-11T03:18:28.827Z,95
2019-05-11T03:19:28.726Z,95
2019-05-11T03:20:29.288Z,95
2019-05-11T03:21:28.611Z,95
2019-05-11T03:22:28.880Z,95
2019-05-11T03:23:28.695Z,95
2019-05-11T03:24:29.075Z,95
2019-05-11T03:25:28.934Z,95
2019-05-11T03:26:29.117Z,95
2019-05-11T03:27:28.701Z,95
2019-05-11T03:28:28.882Z,95
2019-05-11T03:30:00.470Z,95
2019-05-11T03:30:28.861Z,95
2019-05-11T03:31:28.674Z,95
2019-05-11T03:32:28.672Z,95
2019-05-11T03:33:28.631Z,95
2019-05-11T03:34:28.615Z,95
2019-05-11T03:35:29.178Z,95
2019-05-11T03:36:28.803Z,95
2019-05-11T03:37:28.676Z,95
2019-05-11T03:38:28.561Z,95
2019-05-11T03:39:28.512Z,95
2019-05-11T03:40:28.584Z,95
2019-05-11T03:41:29.069Z,95
2019-05-11T03:42:29.103Z,95
2019-05-11T03:43:29.187Z,95
2019-05-11T03:44:28.934Z,95
2019-05-11T03:45:28.498Z,95
2019-05-11T03:46:28.559Z,95
2019-05-11T03:47:28.998Z,95
2019-05-11T03:48:28.851Z,95
2019-05-11T03:49:28.951Z,95
2019-05-11T03:50:29.059Z,95
2019-05-11T03:51:28.629Z,95
2019-05-11T03:52:28.990Z,95
2019-05-11T03:53:30.286Z,95
2019-05-11T03:54:28.798Z,95
2019-05-11T03:55:28.624Z,95
2019-05-11T03:56:28.931Z,95
2019-05-11T03:57:28.738Z,95
2019-05-11T03:58:29.234Z,95
2019-05-11T03:59:29.089Z,95
2019-05-11T04:00:28.610Z,95
2019-05-11T04:01:29.375Z,95
2019-05-11T04:02:28.525Z,95
2019-05-11T04:03:28.606Z,95
2019-05-11T04:04:28.533Z,95
2019-05-11T04:05:28.578Z,95
2019-05-11T04:06:29.220Z,95
2019-05-11T04:07:28.739Z,95
2019-05-11T04:08:28.708Z,95
2019-05-11T04:09:28.593Z,95
2019-05-11T04:10:28.678Z,95
2019-05-11T04:11:28.619Z,95
2019-05-11T04:12:34.674Z,95
2019-05-11T04:13:28.650Z,95
2019-05-11T04:14:28.638Z,95
2019-05-11T04:15:28.843Z,95
2019-05-11T04:16:28.723Z,95
2019-05-11T04:17:28.830Z,95
2019-05-11T04:18:29.163Z,95
2019-05-11T04:19:28.893Z,95
2019-05-11T04:20:29.733Z,95
2019-05-11T04:21:28.594Z,95
2019-05-11T04:22:28.878Z,95
2019-05-11T04:23:29.133Z,95
2019-05-11T04:24:28.722Z,95
2019-05-11T04:25:29.392Z,95
2019-05-11T04:26:28.688Z,95
2019-05-11T04:27:29.460Z,95
2019-05-11T04:28:28.919Z,95
2019-05-11T04:29:29.070Z,95
2019-05-11T04:30:29.122Z,94
2019-05-11T04:31:28.738Z,94
2019-05-11T04:32:29.165Z,94
2019-05-11T04:33:32.732Z,95
2019-05-11T04:34:28.909Z,95
2019-05-11T04:35:30.162Z,95
2019-05-11T04:36:28.962Z,95
2019-05-11T04:37:28.687Z,95
2019-05-11T04:38:29.290Z,95
2019-05-11T04:39:28.690Z,95
2019-05-11T04:40:28.999Z,95
2019-05-11T04:41:30.455Z,95
2019-05-11T04:42:30.505Z,95
2019-05-11T04:43:29.092Z,95
2019-05-11T04:44:28.931Z,95
2019-05-11T04:45:28.836Z,94
2019-05-11T04:46:29.413Z,94
2019-05-11T04:47:28.717Z,94
2019-05-11T04:48:28.944Z,94
2019-05-11T04:49:29.096Z,94
2019-05-11T04:50:29.393Z,94
2019-05-11T04:51:28.658Z,94
2019-05-11T04:52:28.907Z,94
2019-05-11T04:53:28.758Z,94
2019-05-11T04:54:28.890Z,94
2019-05-11T04:55:28.858Z,94
2019-05-11T04:56:28.742Z,94
2019-05-11T04:57:29.094Z,94
2019-05-11T04:58:28.719Z,95
2019-05-11T04:59:28.754Z,95
2019-05-11T05:00:28.743Z,95
2019-05-11T05:01:45.457Z,95
2019-05-11T05:02:29.694Z,95
2019-05-11T05:03:39.703Z,94
2019-05-11T05:04:30.116Z,94
2019-05-11T05:05:28.970Z,94
2019-05-11T05:06:29.224Z,94
2019-05-11T05:07:28.842Z,94
2019-05-11T05:08:29.444Z,94
2019-05-11T05:09:28.850Z,94
2019-05-11T05:10:28.891Z,94
2019-05-11T05:11:36.350Z,94
2019-05-11T05:12:28.629Z,94
2019-05-11T05:13:29.617Z,94
2019-05-11T05:14:28.683Z,94
2019-05-11T05:15:28.962Z,94
2019-05-11T05:16:31.169Z,94
2019-05-11T05:17:29.080Z,94
2019-05-11T05:18:29.245Z,94
2019-05-11T05:19:28.719Z,94
2019-05-11T05:20:29.696Z,94
2019-05-11T05:21:31.278Z,94
2019-05-11T05:22:29.237Z,94
2019-05-11T05:23:29.145Z,94
2019-05-11T05:24:28.766Z,94
2019-05-11T05:25:29.166Z,94
2019-05-11T05:26:28.720Z,94
2019-05-11T05:27:29.146Z,94
2019-05-11T05:28:28.875Z,94
2019-05-11T05:29:28.688Z,94
2019-05-11T05:30:28.677Z,94
2019-05-11T05:31:29.246Z,94
2019-05-11T05:32:30.597Z,94
2019-05-11T05:33:31.184Z,94
2019-05-11T05:34:29.306Z,94
2019-05-11T05:35:29.009Z,94
2019-05-11T05:36:28.768Z,94
2019-05-11T05:37:30.269Z,94
2019-05-11T05:38:28.927Z,94
2019-05-11T05:39:28.707Z,94
2019-05-11T05:40:28.806Z,94
2019-05-11T05:41:29.619Z,94
2019-05-11T05:42:28.975Z,94
2019-05-11T05:43:29.227Z,94
2019-05-11T05:44:28.885Z,94
2019-05-11T05:45:28.866Z,94
2019-05-11T05:46:28.993Z,94
2019-05-11T05:47:29.507Z,94
2019-05-11T05:48:29.473Z,94
2019-05-11T05:49:29.274Z,94
2019-05-11T05:50:29.294Z,94
2019-05-11T05:51:28.945Z,94
2019-05-11T05:52:29.458Z,94
2019-05-11T05:53:29.123Z,94
2019-05-11T05:54:29.028Z,94
2019-05-11T05:55:28.739Z,94
2019-05-11T05:56:29.215Z,94
2019-05-11T05:57:30.050Z,94
2019-05-11T05:58:29.026Z,94
2019-05-11T05:59:28.769Z,93
2019-05-11T06:00:28.824Z,93
2019-05-11T06:01:28.833Z,93
2019-05-11T06:02:28.941Z,93
2019-05-11T06:03:30.243Z,93
2019-05-11T06:04:29.261Z,93
2019-05-11T06:05:28.850Z,93
2019-05-11T06:06:29.358Z,93
2019-05-11T06:07:29.897Z,93
2019-05-11T06:08:28.950Z,93
2019-05-11T06:16:02.012Z,93
2019-05-11T06:16:10.083Z,93
2019-05-11T06:17:10.241Z,92
2019-05-11T06:18:09.993Z,92
2019-05-11T06:19:11.523Z,92
2019-05-11T06:20:12.568Z,92
2019-05-11T06:21:10.352Z,92
2019-05-11T06:22:10.014Z,92
2019-05-11T06:23:10.380Z,92
2019-05-11T06:24:11.809Z,92
2019-05-11T06:26:23.849Z,92
2019-05-11T06:27:22.701Z,92
2019-05-11T06:28:22.750Z,92
2019-05-11T06:29:22.900Z,92
2019-05-11T06:30:22.563Z,92
2019-05-11T06:31:22.656Z,92
2019-05-11T06:32:22.655Z,92
2019-05-11T06:33:22.545Z,92
2019-05-11T06:34:24.409Z,92
2019-05-11T06:35:23.827Z,92
2019-05-11T06:36:22.581Z,92
2019-05-11T06:37:24.276Z,92
2019-05-11T06:38:23.089Z,92
2019-05-11T06:39:22.742Z,92
2019-05-11T06:40:23.058Z,92
2019-05-11T06:41:22.606Z,92
2019-05-11T06:42:23.092Z,92
2019-05-11T06:43:23.162Z,92
2019-05-11T06:44:23.567Z,92
2019-05-11T06:45:22.980Z,92
2019-05-11T06:46:22.599Z,92
2019-05-11T06:47:22.785Z,92
2019-05-11T06:48:23.082Z,92
2019-05-11T06:49:22.577Z,92
2019-05-11T06:50:22.647Z,92
2019-05-11T06:51:22.764Z,92
2019-05-11T06:52:22.792Z,92
2019-05-11T06:53:23.025Z,92
2019-05-11T06:54:22.888Z,92
2019-05-11T06:55:22.654Z,93
2019-05-11T06:56:23.668Z,93
2019-05-11T06:57:22.860Z,93
2019-05-11T06:58:22.826Z,93
2019-05-11T06:59:22.976Z,93
2019-05-11T07:00:23.071Z,93
2019-05-11T07:01:22.800Z,93
2019-05-11T07:02:23.719Z,93
2019-05-11T07:03:22.901Z,93
2019-05-11T07:04:22.736Z,93
2019-05-11T07:05:23.119Z,93
2019-05-11T07:06:25.762Z,93
2019-05-11T07:07:23.127Z,93
2019-05-11T07:08:23.048Z,93
2019-05-11T07:09:22.655Z,93
2019-05-11T07:10:22.916Z,94
2019-05-11T07:11:23.797Z,94
2019-05-11T07:12:23.128Z,94
2019-05-11T07:13:23.817Z,94
2019-05-11T07:14:22.774Z,94
2019-05-11T07:15:22.600Z,94
2019-05-11T07:16:22.618Z,94
2019-05-11T07:17:22.663Z,94
2019-05-11T07:18:22.782Z,94
2019-05-11T07:19:22.619Z,94
2019-05-11T07:20:22.624Z,94
2019-05-11T07:24:41.264Z,94
2019-05-11T07:24:51.239Z,94
2019-05-11T07:25:51.131Z,94
2019-05-11T07:26:51.143Z,94
2019-05-11T07:27:52.323Z,94
2019-05-11T07:28:51.353Z,93
2019-05-11T07:29:51.175Z,93
2019-05-11T07:30:51.998Z,93
2019-05-11T07:31:51.286Z,93
2019-05-11T07:32:51.247Z,93
2019-05-11T07:33:51.749Z,93
2019-05-11T07:34:51.680Z,93
2019-05-11T07:35:52.020Z,93
2019-05-11T07:36:51.095Z,93
2019-05-11T07:37:51.158Z,93
2019-05-11T07:38:51.450Z,93
2019-05-11T07:39:51.172Z,93
2019-05-11T07:40:51.151Z,93
2019-05-11T07:41:54.902Z,93
2019-05-11T07:42:51.563Z,93
2019-05-11T07:43:58.896Z,93
2019-05-11T07:44:52.999Z,93
2019-05-11T07:45:51.367Z,93
2019-05-11T07:46:53.265Z,93
2019-05-11T07:47:55.432Z,93
2019-05-11T07:48:52.621Z,92
2019-05-11T07:49:51.192Z,92
2019-05-11T07:50:51.823Z,92
2019-05-11T07:51:51.060Z,92
2019-05-11T07:52:51.563Z,92
2019-05-11T07:53:51.099Z,92
2019-05-11T07:54:52.778Z,92
2019-05-11T07:55:51.242Z,92
2019-05-11T07:56:51.980Z,91
2019-05-11T07:57:51.176Z,91
2019-05-11T07:58:51.120Z,92
2019-05-11T07:59:51.163Z,92
2019-05-11T08:00:51.700Z,92
2019-05-11T08:01:51.251Z,91
2019-05-11T08:02:51.250Z,91
2019-05-11T08:03:51.375Z,90
2019-05-11T08:04:51.934Z,90
2019-05-11T08:05:58.060Z,90
2019-05-11T08:06:53.785Z,90
2019-05-11T08:07:54.531Z,90
2019-05-11T08:08:53.770Z,90
2019-05-11T08:09:51.658Z,90
2019-05-11T08:10:51.490Z,90
2019-05-11T08:11:51.772Z,90
2019-05-11T08:12:58.649Z,90
2019-05-11T08:14:08.254Z,90
2019-05-11T08:14:58.910Z,89
2019-05-11T08:16:08.183Z,89
2019-05-11T08:16:53.949Z,88
2019-05-11T08:17:52.727Z,88
2019-05-11T08:19:10.306Z,88
2019-05-11T08:20:08.259Z,87
2019-05-11T08:20:54.041Z,87
2019-05-11T08:21:54.379Z,85
2019-05-11T08:22:54.604Z,85
2019-05-11T08:23:51.748Z,85
2019-05-11T08:24:51.229Z,85
2019-05-11T08:25:54.109Z,85
2019-05-11T08:26:51.629Z,85
2019-05-11T08:27:51.244Z,85
2019-05-11T08:28:51.371Z,85
2019-05-11T08:29:51.691Z,84
2019-05-11T08:30:52.300Z,84
2019-05-11T08:31:51.289Z,84
2019-05-11T08:32:52.837Z,84
2019-05-11T08:33:51.913Z,84
2019-05-11T08:35:10.238Z,85
2019-05-11T08:36:09.061Z,85
2019-05-11T08:36:52.803Z,86
2019-05-11T08:37:51.755Z,86
2019-05-11T08:38:52.991Z,86
2019-05-11T08:39:51.976Z,83
2019-05-11T08:40:51.521Z,83
2019-05-11T08:41:51.334Z,81
2019-05-11T08:42:52.433Z,81
2019-05-11T08:43:52.074Z,81
2019-05-11T08:44:51.347Z,80
2019-05-11T08:45:51.316Z,80
2019-05-11T08:46:51.437Z,80
2019-05-11T08:47:52.065Z,79
2019-05-11T08:48:56.391Z,79
2019-05-11T08:49:51.390Z,79
2019-05-11T08:50:51.502Z,79
2019-05-11T08:51:51.835Z,79
2019-05-11T08:52:52.401Z,79
2019-05-11T08:53:55.653Z,79
2019-05-11T08:54:53.549Z,78
2019-05-11T08:55:54.635Z,78
2019-05-11T08:56:52.003Z,78
2019-05-11T08:57:51.462Z,77
2019-05-11T08:58:55.161Z,77
2019-05-11T08:59:57.976Z,75
2019-05-11T09:00:51.263Z,75
2019-05-11T09:01:58.654Z,75
2019-05-11T09:02:52.821Z,74
2019-05-11T09:03:51.346Z,74
2019-05-11T09:04:51.741Z,74
2019-05-11T09:05:53.616Z,74
2019-05-11T09:06:51.905Z,74
2019-05-11T09:07:51.781Z,74
2019-05-11T09:09:01.793Z,74
2019-05-11T09:09:51.526Z,73
2019-05-11T09:10:53.659Z,73
2019-05-11T09:11:52.605Z,73
2019-05-11T09:12:53.336Z,72
2019-05-11T09:13:54.018Z,72
2019-05-11T09:14:52.689Z,72
2019-05-11T09:15:53.730Z,72
2019-05-11T09:16:51.890Z,72
2019-05-11T09:17:51.481Z,74
2019-05-11T09:18:51.338Z,74
2019-05-11T09:19:51.458Z,74
2019-05-11T09:20:51.386Z,71
2019-05-11T09:21:51.366Z,71
2019-05-11T09:22:51.595Z,70
2019-05-11T09:23:52.088Z,70
2019-05-11T09:24:51.829Z,70
2019-05-11T09:25:51.383Z,71
2019-05-11T09:26:51.889Z,71
2019-05-11T09:27:52.033Z,70
2019-05-11T09:28:51.552Z,70
2019-05-11T09:29:52.243Z,70
2019-05-11T09:30:51.791Z,70
2019-05-11T09:31:51.623Z,70
2019-05-11T09:32:51.918Z,71
2019-05-11T09:33:52.265Z,71
2019-05-11T09:34:51.787Z,71
2019-05-11T09:35:53.304Z,72
2019-05-11T09:36:52.604Z,72
2019-05-11T09:37:52.116Z,73
2019-05-11T09:38:51.439Z,73
2019-05-11T09:39:51.433Z,73
2019-05-11T09:40:52.200Z,75
2019-05-11T09:41:51.866Z,75
2019-05-11T09:42:51.838Z,75
2019-05-11T09:43:53.601Z,75
2019-05-11T09:44:51.369Z,75
2019-05-11T09:45:52.204Z,75
2019-05-11T09:46:52.619Z,75
2019-05-11T09:47:59.046Z,75
2019-05-11T09:48:52.931Z,75
2019-05-11T09:49:51.755Z,75
2019-05-11T09:51:07.781Z,75
2019-05-11T09:51:54.475Z,75
2019-05-11T09:52:51.535Z,75
2019-05-11T09:53:51.982Z,74
2019-05-11T09:54:52.352Z,74
2019-05-11T09:55:51.348Z,74
2019-05-11T09:56:55.216Z,74
2019-05-11T09:57:54.225Z,74
2019-05-11T09:58:59.150Z,73
2019-05-11T09:59:54.167Z,73
2019-05-11T10:00:54.570Z,74
2019-05-11T10:01:52.470Z,74
2019-05-11T10:02:54.500Z,74
2019-05-11T10:03:58.451Z,73
2019-05-11T10:04:54.233Z,73
2019-05-11T10:05:54.481Z,71
2019-05-11T10:06:55.591Z,71
2019-05-11T10:08:03.672Z,71
2019-05-11T10:08:57.844Z,71
2019-05-11T10:09:58.644Z,71
2019-05-11T10:10:59.221Z,71
2019-05-11T10:11:54.277Z,71
2019-05-11T10:12:56.094Z,71
2019-05-11T10:14:05.175Z,71
2019-05-11T10:14:51.924Z,71
2019-05-11T10:16:00.979Z,71
2019-05-11T10:16:52.682Z,72
2019-05-11T10:17:54.140Z,72
2019-05-11T10:18:59.077Z,74
2019-05-11T10:19:59.915Z,74
2019-05-11T10:21:09.563Z,74
2019-05-11T10:21:53.209Z,77
2019-05-11T10:22:53.013Z,77
2019-05-11T10:23:54.082Z,78
2019-05-11T10:24:58.158Z,78
2019-05-11T10:25:54.030Z,78
2019-05-11T10:26:57.677Z,78
2019-05-11T10:27:51.530Z,78
2019-05-11T10:28:53.484Z,78
2019-05-11T10:30:07.534Z,78
2019-05-11T10:30:52.401Z,78
2019-05-11T10:31:51.784Z,75
2019-05-11T10:32:51.940Z,75
2019-05-11T10:33:51.921Z,73
2019-05-11T10:34:51.424Z,73
2019-05-11T10:35:51.465Z,73
2019-05-11T10:36:51.403Z,69
2019-05-11T10:37:51.864Z,69
2019-05-11T10:38:51.881Z,66
2019-05-11T10:39:51.474Z,66
2019-05-11T10:40:51.551Z,66
2019-05-11T10:41:53.301Z,66
2019-05-11T10:42:51.456Z,66
2019-05-11T10:43:51.503Z,64
2019-05-11T10:44:52.410Z,64
2019-05-11T10:45:54.179Z,64
2019-05-11T10:46:51.377Z,65
2019-05-11T10:48:03.052Z,65
2019-05-11T10:48:51.565Z,65
2019-05-11T10:49:51.499Z,64
2019-05-11T10:50:53.482Z,64
2019-05-11T10:51:52.853Z,64
2019-05-11T10:52:51.591Z,64
2019-05-11T10:53:52.074Z,64
2019-05-11T10:54:51.484Z,64
2019-05-11T10:55:52.057Z,64
2019-05-11T10:56:51.624Z,65
2019-05-11T10:57:51.585Z,65
2019-05-11T10:58:52.084Z,65
2019-05-11T10:59:51.759Z,65
2019-05-11T11:00:51.747Z,65
2019-05-11T11:01:51.653Z,63
2019-05-11T11:02:51.851Z,63
2019-05-11T11:03:51.733Z,63
2019-05-11T11:04:51.542Z,64
2019-05-11T11:05:51.718Z,64
2019-05-11T11:06:52.041Z,64
2019-05-11T11:07:51.563Z,64
2019-05-11T11:08:51.595Z,64
2019-05-11T11:09:51.624Z,64
2019-05-11T11:10:51.680Z,64
2019-05-11T11:11:51.970Z,64
2019-05-11T11:12:52.245Z,64
2019-05-11T11:13:51.772Z,64
2019-05-11T11:14:52.197Z,62
2019-05-11T11:15:51.724Z,62
2019-05-11T11:16:51.620Z,62
2019-05-11T11:17:51.563Z,62
2019-05-11T11:18:51.448Z,62
2019-05-11T11:19:51.510Z,63
2019-05-11T11:20:51.462Z,63
2019-05-11T11:21:52.488Z,63
2019-05-11T11:22:51.991Z,62
2019-05-11T11:23:54.214Z,62
2019-05-11T11:24:52.678Z,63
2019-05-11T11:25:51.483Z,63
2019-05-11T11:26:51.592Z,63
2019-05-11T11:27:52.184Z,62
2019-05-11T11:28:51.802Z,62
2019-05-11T11:29:51.508Z,62
2019-05-11T11:30:51.546Z,62
2019-05-11T11:31:51.700Z,62
2019-05-11T11:32:51.944Z,62
2019-05-11T11:33:55.163Z,62
2019-05-11T11:34:52.614Z,62
2019-05-11T11:35:51.675Z,62
2019-05-11T11:36:53.690Z,62
2019-05-11T11:37:51.645Z,61
2019-05-11T11:38:55.336Z,61
2019-05-11T11:39:53.351Z,58
2019-05-11T11:40:53.704Z,58
2019-05-11T11:41:52.729Z,58
2019-05-11T11:42:52.366Z,61
2019-05-11T11:43:55.695Z,61
2019-05-11T11:44:51.781Z,59
2019-05-11T11:45:52.584Z,59
2019-05-11T11:46:54.971Z,59
2019-05-11T11:47:54.128Z,59
2019-05-11T11:48:52.735Z,59
2019-05-11T11:49:51.538Z,59
2019-05-11T11:50:52.052Z,60
2019-05-11T11:51:52.054Z,60
2019-05-11T11:52:59.198Z,59
2019-05-11T11:53:52.428Z,59
2019-05-11T11:54:51.897Z,59
2019-05-11T11:55:51.488Z,58
2019-05-11T11:56:52.403Z,58
2019-05-11T11:57:54.070Z,58
2019-05-11T11:58:51.511Z,58
2019-05-11T11:59:51.832Z,58
2019-05-11T12:00:51.625Z,59
2019-05-11T12:01:51.783Z,59
2019-05-11T12:02:52.138Z,59
2019-05-11T12:03:51.600Z,59
2019-05-11T12:04:51.896Z,59
2019-05-11T12:05:51.606Z,61
2019-05-11T12:06:52.075Z,61
2019-05-11T12:07:52.424Z,58
2019-05-11T12:08:51.905Z,58
2019-05-11T12:09:52.044Z,58
2019-05-11T12:10:51.862Z,58
2019-05-11T12:11:52.034Z,58
2019-05-11T12:12:51.646Z,58
2019-05-11T12:13:52.739Z,58
2019-05-11T12:14:52.582Z,58
2019-05-11T12:15:52.731Z,59
2019-05-11T12:17:03.678Z,59
2019-05-11T12:17:52.144Z,59
2019-05-11T12:18:51.784Z,58
2019-05-11T12:19:51.725Z,58
2019-05-11T12:20:51.764Z,57
2019-05-11T12:21:52.454Z,57
2019-05-11T12:22:52.106Z,57
2019-05-11T12:23:51.834Z,58
2019-05-11T12:24:52.166Z,58
2019-05-11T12:25:58.048Z,57
2019-05-11T12:26:58.525Z,57
2019-05-11T12:27:57.635Z,57
2019-05-11T12:28:53.383Z,57
2019-05-11T12:30:04.383Z,57
2019-05-11T12:31:13.470Z,54
2019-05-11T12:31:51.666Z,54
2019-05-11T12:32:51.810Z,54
2019-05-11T12:33:58.455Z,56
2019-05-11T12:34:52.283Z,56
2019-05-11T12:35:51.809Z,56
2019-05-11T12:36:51.655Z,56
2019-05-11T12:37:52.073Z,56
2019-05-11T12:38:51.700Z,57
2019-05-11T12:39:51.825Z,57
2019-05-11T12:40:54.406Z,56
2019-05-11T12:41:51.815Z,56
2019-05-11T12:42:51.919Z,56
2019-05-11T12:43:52.142Z,57
2019-05-11T12:44:51.600Z,57
2019-05-11T12:45:51.869Z,57
2019-05-11T12:46:51.889Z,57
2019-05-11T12:47:51.682Z,57
2019-05-11T12:48:52.239Z,56
2019-05-11T12:49:51.741Z,56
2019-05-11T12:50:52.942Z,56
2019-05-11T12:51:52.168Z,57
2019-05-11T12:52:52.050Z,57
2019-05-11T12:53:52.295Z,58
2019-05-11T12:54:51.763Z,58
2019-05-11T12:55:52.650Z,58
2019-05-11T12:56:52.209Z,59
2019-05-11T12:57:51.787Z,59
2019-05-11T12:58:51.777Z,58
2019-05-11T12:59:51.698Z,58
2019-05-11T13:00:51.908Z,58
2019-05-11T13:01:51.717Z,58
2019-05-11T13:02:51.734Z,58
2019-05-11T13:03:52.200Z,58
2019-05-11T13:04:51.976Z,58
2019-05-11T13:05:51.808Z,58
2019-05-11T13:06:52.235Z,58
2019-05-11T13:07:52.580Z,58
2019-05-11T13:08:51.983Z,58
2019-05-11T13:09:51.878Z,58
2019-05-11T13:10:52.171Z,58
2019-05-11T13:11:51.898Z,60
2019-05-11T13:12:51.789Z,60
2019-05-11T13:13:51.866Z,58
2019-05-11T13:14:52.176Z,58
2019-05-11T13:15:51.831Z,58
2019-05-11T13:16:51.804Z,58
2019-05-11T13:17:52.139Z,58
2019-05-11T13:18:51.717Z,58
2019-05-11T13:19:52.075Z,58
2019-05-11T13:20:53.110Z,58
2019-05-11T13:21:53.301Z,57
2019-05-11T13:22:51.795Z,57
2019-05-11T13:23:51.705Z,57
2019-05-11T13:24:51.719Z,56
2019-05-11T13:25:51.697Z,56
2019-05-11T13:26:51.975Z,55
2019-05-11T13:27:51.884Z,55
2019-05-11T13:28:52.622Z,55
2019-05-11T13:29:51.834Z,56
2019-05-11T13:30:52.905Z,56
2019-05-11T13:31:53.148Z,56
2019-05-11T13:32:57.749Z,56
2019-05-11T13:33:52.777Z,56
2019-05-11T13:34:58.344Z,53
2019-05-11T13:35:53.877Z,53
2019-05-11T13:36:53.260Z,54
2019-05-11T13:37:55.045Z,54
2019-05-11T13:38:53.518Z,54
2019-05-11T13:39:52.830Z,54
2019-05-11T13:40:53.302Z,54
2019-05-11T13:41:52.109Z,55
2019-05-11T13:42:52.760Z,55
2019-05-11T13:43:52.192Z,55
2019-05-11T13:44:52.130Z,54
2019-05-11T13:45:51.885Z,54
2019-05-11T13:46:52.112Z,54
2019-05-11T13:48:08.590Z,54
2019-05-11T13:48:51.956Z,54
2019-05-11T13:49:51.978Z,54
2019-05-11T13:50:52.618Z,54
2019-05-11T13:51:51.822Z,54
2019-05-11T13:52:52.457Z,56
2019-05-11T13:53:52.159Z,56
2019-05-11T13:54:52.067Z,55
2019-05-11T13:55:52.638Z,55
2019-05-11T13:56:51.895Z,55
2019-05-11T13:57:52.745Z,56
2019-05-11T13:58:52.500Z,56
2019-05-11T13:59:51.927Z,57
2019-05-11T14:00:52.655Z,57
2019-05-11T14:01:52.170Z,57
2019-05-11T14:02:52.176Z,57
2019-05-11T14:03:51.893Z,57
2019-05-11T14:04:52.122Z,56
2019-05-11T14:05:52.182Z,56
2019-05-11T14:06:52.893Z,56
2019-05-11T14:07:53.592Z,57
2019-05-11T14:08:51.903Z,57
2019-05-11T14:09:52.064Z,58
2019-05-11T14:10:52.742Z,58
2019-05-11T14:11:52.111Z,58
2019-05-11T14:12:53.728Z,56
2019-05-11T14:13:53.126Z,56
2019-05-11T14:14:52.057Z,56
2019-05-11T14:15:52.335Z,56
2019-05-11T14:16:52.447Z,56
2019-05-11T14:18:04.443Z,56
2019-05-11T14:18:52.774Z,56
2019-05-11T14:19:53.028Z,56
2019-05-11T14:20:52.257Z,56
2019-05-11T14:21:52.741Z,56
2019-05-11T14:22:53.355Z,56
2019-05-11T14:23:52.133Z,56
2019-05-11T14:24:53.386Z,56
2019-05-11T14:25:53.106Z,60
2019-05-11T14:26:53.959Z,60
2019-05-11T14:27:53.029Z,62
2019-05-11T14:28:52.081Z,62
2019-05-11T14:29:58.088Z,62